Time;durP1;ratioP1;P1;durP2;ratioP2;P2;SDS_P1;SDS_P2;PMS_P1;PMS_P2;Temp;Humidity;BMP_temperature;BMP_pressure;BME280_temperature;BME280_humidity;BME280_pressure;Samples;Min_cycle;Max_cycle;Signal;HPM_P1;HPM_P2
2022/01/14 00:04:53;;;;;;;20.23;9.77;;;;;;;5.72;60.34;101922.78;18499283;32;20095;-68
2022/01/14 00:15:00;;;;;;;20.08;9.15;;;;;;;5.93;60.79;101902.94;18499133;32;20093;-68
2022/01/14 00:35:26;;;;;;;19.70;9.45;;;;;;;5.79;60.15;101870.37;18498569;32;20494;-68
2022/01/14 00:45:31;;;;;;;20.58;9.15;;;;;;;5.34;59.65;101863.31;18498175;32;20089;-67
2022/01/14 00:55:47;;;;;;;20.55;8.68;;;;;;;4.67;61.73;101873.34;18498226;32;20399;-67
2022/01/14 01:05:51;;;;;;;22.27;10.13;;;;;;;4.21;62.13;101862.62;18496802;32;20110;-68
2022/01/14 01:15:55;;;;;;;29.42;13.98;;;;;;;4.05;63.08;101855.84;18497556;32;20425;-67
2022/01/14 01:26:09;;;;;;;27.55;12.02;;;;;;;3.71;63.31;101856.78;18497300;32;20085;-67
2022/01/14 01:36:12;;;;;;;24.35;12.07;;;;;;;3.75;64.44;101828.59;18497299;32;20073;-67
2022/01/14 01:46:16;;;;;;;23.05;8.95;;;;;;;3.34;64.48;101835.16;18496698;32;20088;-67
2022/01/14 01:56:19;;;;;;;24.40;10.65;;;;;;;3.51;64.34;101820.53;18496186;32;20107;-67
2022/01/14 02:06:24;;;;;;;26.02;12.90;;;;;;;2.78;66.20;101820.28;18495855;32;20095;-67
2022/01/14 02:16:36;;;;;;;29.48;13.55;;;;;;;2.70;66.91;101805.22;18495377;32;20390;-67
2022/01/14 02:26:49;;;;;;;25.23;11.73;;;;;;;2.67;67.48;101789.59;18494983;32;20467;-67
2022/01/14 02:36:53;;;;;;;30.17;13.80;;;;;;;2.55;67.78;101772.66;18494339;32;20346;-67
2022/01/14 02:46:59;;;;;;;22.17;10.63;;;;;;;2.99;66.49;101751.69;18493476;32;20103;-67
2022/01/14 02:57:03;;;;;;;24.75;10.82;;;;;;;2.78;66.57;101752.37;18493050;32;20099;-67
2022/01/14 03:07:09;;;;;;;23.05;10.55;;;;;;;2.80;67.04;101737.84;18492165;32;20110;-67
2022/01/14 03:17:12;;;;;;;22.02;11.18;;;;;;;2.88;68.13;101731.41;18491876;32;20106;-67
2022/01/14 03:27:17;;;;;;;21.67;10.73;;;;;;;2.49;69.24;101702.75;18491124;32;20089;-67
2022/01/14 03:37:19;;;;;;;21.52;10.15;;;;;;;2.50;67.86;101696.78;18499730;32;20348;-67
2022/01/14 03:47:24;;;;;;;22.30;11.55;;;;;;;2.63;66.81;101691.44;18499927;32;20110;-67
2022/01/14 03:57:27;;;;;;;25.25;11.70;;;;;;;2.20;68.10;101707.28;18499888;32;20116;-67
2022/01/14 04:07:31;;;;;;;31.12;13.13;;;;;;;1.98;68.92;101702.66;18500486;32;20111;-67
2022/01/14 04:17:34;;;;;;;29.10;14.77;;;;;;;2.19;69.90;101669.44;18499101;32;20085;-67
2022/01/14 04:27:38;;;;;;;24.63;12.27;;;;;;;2.30;67.96;101655.41;18498990;32;20100;-67
2022/01/14 04:37:42;;;;;;;21.35;9.55;;;;;;;2.54;69.76;101643.72;18498318;32;20346;-67
2022/01/14 04:47:46;;;;;;;19.33;8.15;;;;;;;2.72;71.29;101633.41;18498301;32;20092;-68
2022/01/14 04:57:50;;;;;;;21.75;10.50;;;;;;;4.10;68.01;101619.16;18498204;32;20107;-67
2022/01/14 05:07:54;;;;;;;25.30;11.25;;;;;;;4.53;64.38;101616.69;18497939;32;20100;-67
2022/01/14 05:17:57;;;;;;;25.73;12.05;;;;;;;3.87;65.86;101610.41;18497617;32;20183;-67
2022/01/14 05:28:01;;;;;;;28.25;12.75;;;;;;;3.07;67.55;101602.41;18497030;32;20119;-67
2022/01/14 05:38:05;;;;;;;25.62;10.52;;;;;;;3.24;67.80;101611.84;18496834;32;20104;-67
2022/01/14 05:48:09;;;;;;;27.52;11.82;;;;;;;3.31;66.46;101601.00;18496646;32;20085;-67
2022/01/14 05:58:12;;;;;;;23.35;10.80;;;;;;;2.69;67.09;101610.94;18495958;32;20088;-67
2022/01/14 06:08:17;;;;;;;27.87;11.80;;;;;;;2.72;65.51;101612.78;18496174;32;20429;-67
2022/01/14 06:18:20;;;;;;;25.65;11.60;;;;;;;2.63;66.69;101608.94;18495527;32;20090;-67
2022/01/14 06:28:25;;;;;;;27.05;12.00;;;;;;;2.24;69.29;101588.09;18494907;32;20077;-67
2022/01/14 06:38:28;;;;;;;23.48;11.82;;;;;;;2.22;69.44;101581.97;18494123;32;20111;-67
2022/01/14 06:48:33;;;;;;;24.70;11.10;;;;;;;2.51;67.79;101582.56;18493205;32;20089;-67
2022/01/14 06:58:36;;;;;;;23.20;10.43;;;;;;;2.29;70.97;101571.19;18491142;32;20443;-67
2022/01/14 07:08:41;;;;;;;23.45;11.32;;;;;;;3.12;68.95;101568.28;18495379;32;20084;-67
2022/01/14 07:18:47;;;;;;;28.00;13.43;;;;;;;3.55;68.97;101578.84;18498649;32;20190;-67
2022/01/14 07:28:52;;;;;;;35.83;18.67;;;;;;;4.50;66.01;101569.97;18506580;32;20111;-68
2022/01/14 07:38:55;;;;;;;32.22;14.15;;;;;;;5.00;64.08;101554.75;18506504;32;20093;-68
2022/01/14 07:48:59;;;;;;;37.28;18.17;;;;;;;5.37;62.66;101565.66;18501313;32;20116;-67
2022/01/14 07:59:02;;;;;;;23.98;10.77;;;;;;;6.11;60.11;101560.56;18498196;32;20162;-70
2022/01/14 08:09:07;;;;;;;24.42;11.23;;;;;;;7.05;57.67;101538.53;18498720;32;20103;-68
2022/01/14 08:19:10;;;;;;;23.00;10.73;;;;;;;6.62;58.90;101545.84;18494405;32;20338;-69
2022/01/14 08:29:14;;;;;;;26.73;11.93;;;;;;;6.61;59.87;101538.00;18554540;32;20100;-69
2022/01/14 08:39:18;;;;;;;20.83;9.18;;;;;;;6.93;58.82;101512.22;18561674;32;20487;-68
2022/01/14 08:49:23;;;;;;;23.52;9.52;;;;;;;7.08;57.75;101502.28;18557438;32;20088;-68
2022/01/14 08:59:26;;;;;;;21.62;10.05;;;;;;;7.36;57.20;101491.84;18557513;32;20088;-68
2022/01/14 09:09:30;;;;;;;19.35;8.90;;;;;;;7.89;55.97;101488.03;18561908;32;20092;-68
2022/01/14 09:19:34;;;;;;;18.42;8.23;;;;;;;7.89;55.61;101473.34;18561512;32;20115;-69
2022/01/14 09:29:39;;;;;;;16.87;7.25;;;;;;;8.63;53.53;101446.50;18559865;32;20084;-69
2022/01/14 09:39:43;;;;;;;18.40;8.75;;;;;;;8.89;52.63;101444.47;18555989;32;20193;-69
2022/01/14 09:49:48;;;;;;;13.25;6.00;;;;;;;8.95;52.46;101448.94;18559987;32;20114;-69
2022/01/14 09:59:50;;;;;;;14.38;6.60;;;;;;;9.21;49.34;101428.66;18557503;32;20096;-69
2022/01/14 10:09:58;;;;;;;13.88;6.40;;;;;;;9.49;48.37;101410.94;18558397;32;20088;-69
2022/01/14 10:20:01;;;;;;;14.48;6.28;;;;;;;9.74;48.23;101400.94;18556218;31;20444;-69
2022/01/14 10:30:17;;;;;;;15.75;6.47;;;;;;;10.08;45.81;101385.84;18555603;32;20092;-69
2022/01/14 10:40:22;;;;;;;14.63;5.47;;;;;;;10.31;45.00;101361.81;18557363;32;20110;-69
2022/01/14 10:50:45;;;;;;;14.57;7.28;;;;;;;10.22;45.13;101340.81;18564565;32;20110;-69
2022/01/14 11:00:49;;;;;;;17.45;8.75;;;;;;;10.33;44.69;101335.75;18564737;32;20106;-70
2022/01/14 11:10:54;;;;;;;14.48;7.12;;;;;;;10.16;44.44;101325.94;18564397;32;20103;-69
2022/01/14 11:31:29;;;;;;;12.85;5.53;;;;;;;10.57;44.52;101297.81;18561939;32;20099;-70
2022/01/14 11:41:50;;;;;;;12.57;5.35;;;;;;;10.54;44.84;101285.59;18434278;32;20131;-71
2022/01/14 11:52:00;;;;;;;13.88;5.30;;;;;;;10.92;44.16;101268.59;18429674;32;20159;-72
2022/01/14 12:02:27;;;;;;;13.38;5.25;;;;;;;10.37;44.91;101272.28;18432620;32;20392;-72
2022/01/14 12:12:33;;;;;;;14.43;5.32;;;;;;;10.18;45.49;101260.75;18430222;32;20131;-72
2022/01/14 12:22:36;;;;;;;12.25;5.20;;;;;;;10.37;44.84;101264.47;18429217;32;20089;-72
2022/01/14 12:32:42;;;;;;;12.00;5.93;;;;;;;10.28;45.06;101253.03;18444576;32;20111;-72
2022/01/14 12:42:48;;;;;;;13.77;5.50;;;;;;;9.57;47.02;101255.53;18556781;32;20092;-71
2022/01/14 12:52:52;;;;;;;12.60;5.60;;;;;;;9.32;47.94;101250.78;18556190;32;20092;-71
2022/01/14 13:02:55;;;;;;;13.43;5.85;;;;;;;9.56;47.67;101251.16;18504384;32;20100;-72
2022/01/14 13:13:03;;;;;;;14.40;6.15;;;;;;;9.92;47.05;101250.84;18505835;32;20115;-72
2022/01/14 13:23:08;;;;;;;13.10;5.65;;;;;;;9.83;47.09;101236.81;18530356;32;20100;-72
2022/01/14 13:33:15;;;;;;;13.60;5.15;;;;;;;10.13;46.46;101214.59;18524692;32;20144;-72
2022/01/14 13:43:21;;;;;;;20.02;5.90;;;;;;;10.07;46.94;101218.84;18560098;32;20089;-71
2022/01/14 13:53:33;;;;;;;46.20;7.80;;;;;;;10.15;46.81;101219.84;18557391;32;20110;-71
2022/01/14 14:03:45;;;;;;;15.87;7.10;;;;;;;10.15;46.73;101212.00;18557326;32;20102;-72
2022/01/14 14:24:19;;;;;;;12.33;4.77;;;;;;;9.96;47.21;101218.75;18508747;32;20089;-72
2022/01/14 14:34:24;;;;;;;13.38;5.62;;;;;;;9.46;48.37;101225.81;18546404;32;109849;-74
2022/01/14 14:44:27;;;;;;;12.95;5.10;;;;;;;9.47;48.32;101232.78;18528004;32;20080;-73
2022/01/14 14:54:31;;;;;;;11.63;5.20;;;;;;;9.51;47.98;101232.00;18537099;31;20427;-73
2022/01/14 15:04:35;;;;;;;18.55;7.12;;;;;;;9.14;49.00;101227.03;18551585;32;20084;-73
2022/01/14 15:14:44;;;;;;;11.63;5.03;;;;;;;9.06;49.39;101227.78;18544741;32;20461;-73
2022/01/14 15:24:47;;;;;;;14.32;5.93;;;;;;;8.91;50.08;101224.03;18551071;32;20114;-73
2022/01/14 15:34:52;;;;;;;13.23;5.40;;;;;;;8.62;50.68;101211.38;18532425;32;20171;-73
2022/01/14 15:44:55;;;;;;;14.20;5.97;;;;;;;8.18;52.21;101194.91;18526343;32;20101;-73
2022/01/14 15:55:01;;;;;;;11.98;5.30;;;;;;;8.11;52.83;101187.81;18493280;32;20114;-72
2022/01/14 16:05:05;;;;;;;45.45;22.52;;;;;;;7.97;53.65;101153.72;18502862;32;20120;-73
2022/01/14 16:15:10;;;;;;;70.53;37.13;;;;;;;7.69;54.71;101139.28;18493615;32;20547;-73
2022/01/14 16:25:14;;;;;;;27.73;16.73;;;;;;;7.84;54.91;101188.09;18490688;32;20092;-73
2022/01/14 16:35:19;;;;;;;13.85;6.28;;;;;;;8.44;52.89;101186.75;18502538;32;20464;-73
2022/01/14 16:45:22;;;;;;;13.43;5.85;;;;;;;7.89;54.71;101178.66;18497624;32;20111;-73
2022/01/14 16:55:27;;;;;;;21.27;12.30;;;;;;;7.77;54.63;101194.88;18496414;32;20092;-74
2022/01/14 17:05:30;;;;;;;57.62;31.50;;;;;;;7.85;55.04;101189.87;18525457;32;20089;-73
2022/01/14 17:15:34;;;;;;;18.62;8.40;;;;;;;8.08;54.21;101186.84;18554649;31;20119;-73
2022/01/14 17:25:37;;;;;;;15.10;6.18;;;;;;;8.19;53.51;101187.94;18556018;32;20124;-73
2022/01/14 17:35:42;;;;;;;13.85;5.85;;;;;;;8.72;51.96;101191.59;18555830;32;20120;-74
2022/01/14 17:45:45;;;;;;;14.98;6.62;;;;;;;8.04;52.66;101209.31;18560021;32;20099;-72
2022/01/14 17:55:50;;;;;;;12.40;6.12;;;;;;;8.12;51.69;101193.91;18557302;32;20088;-73
2022/01/14 18:05:53;;;;;;;16.00;6.57;;;;;;;8.53;50.51;101216.37;18550459;32;20103;-73
2022/01/14 18:15:58;;;;;;;11.80;5.57;;;;;;;8.46;51.05;101223.19;18552530;32;20088;-74
2022/01/14 18:26:01;;;;;;;17.08;6.62;;;;;;;8.22;51.28;101214.03;18553595;32;20128;-73
2022/01/14 18:36:06;;;;;;;14.05;6.30;;;;;;;8.18;51.50;101213.09;18552612;32;20126;-74
2022/01/14 18:46:11;;;;;;;19.02;7.82;;;;;;;7.70;52.86;101213.78;18553720;32;20107;-73
2022/01/14 18:56:16;;;;;;;16.08;6.50;;;;;;;7.98;52.47;101204.00;18557088;32;20092;-73
2022/01/14 19:06:19;;;;;;;20.88;9.55;;;;;;;7.93;52.57;101208.22;18564946;32;20088;-73
2022/01/14 19:16:23;;;;;;;16.87;8.25;;;;;;;7.87;52.94;101208.97;18565344;32;20092;-73
2022/01/14 19:26:27;;;;;;;19.12;7.65;;;;;;;7.96;52.83;101213.47;18565294;32;20073;-71
2022/01/14 19:36:31;;;;;;;19.55;7.65;;;;;;;7.78;53.53;101204.44;18564626;32;20073;-71
2022/01/14 19:46:34;;;;;;;15.77;6.87;;;;;;;7.71;53.64;101219.00;18560107;32;20092;-71
2022/01/14 19:56:39;;;;;;;17.60;7.85;;;;;;;7.49;54.54;101218.50;18557342;32;20523;-73
2022/01/14 20:06:42;;;;;;;19.52;7.60;;;;;;;7.77;53.61;101218.25;18561235;31;20720;-73
2022/01/14 20:16:47;;;;;;;17.10;8.43;;;;;;;7.48;54.33;101221.06;18567992;31;20079;-74
2022/01/14 20:26:50;;;;;;;14.00;7.32;;;;;;;7.36;54.68;101206.09;18579695;31;20068;-73
2022/01/14 20:36:54;;;;;;;15.75;7.60;;;;;;;7.38;54.96;101208.69;18558124;32;20140;-74
2022/01/14 20:46:57;;;;;;;18.60;7.72;;;;;;;7.15;55.31;101203.84;18559078;32;20096;-73
2022/01/14 20:57:03;;;;;;;16.58;8.18;;;;;;;6.64;56.99;101206.00;18561059;32;20092;-73
2022/01/14 21:07:06;;;;;;;17.98;7.50;;;;;;;6.85;56.24;101243.75;18562873;32;20150;-73
2022/01/14 21:17:10;;;;;;;15.98;6.93;;;;;;;6.86;56.24;101261.06;18561942;32;20086;-73
2022/01/14 21:27:15;;;;;;;15.88;7.60;;;;;;;6.70;56.43;101255.47;18560820;32;20077;-73
2022/01/14 21:37:19;;;;;;;16.33;8.10;;;;;;;6.77;55.77;101262.59;18557111;32;20107;-71
2022/01/14 21:47:23;;;;;;;20.45;8.95;;;;;;;6.61;56.90;101262.97;18558987;32;20096;-71
2022/01/14 21:57:31;;;;;;;16.70;8.10;;;;;;;6.66;56.94;101275.25;18560799;32;20085;-70
2022/01/14 22:07:34;;;;;;;15.60;7.28;;;;;;;6.42;57.32;101285.81;18558313;32;20097;-71
2022/01/14 22:17:39;;;;;;;17.73;9.00;;;;;;;6.19;58.19;101293.78;18554273;32;20102;-72
2022/01/14 22:27:42;;;;;;;17.23;7.25;;;;;;;6.62;57.37;101298.47;18551407;32;20096;-71
2022/01/14 22:37:47;;;;;;;14.98;7.07;;;;;;;6.36;57.85;101296.88;18556957;32;20106;-71
2022/01/14 22:47:50;;;;;;;16.77;8.38;;;;;;;6.33;57.91;101296.81;18556926;32;20107;-70
2022/01/14 22:57:54;;;;;;;15.82;7.62;;;;;;;6.24;58.41;101307.75;18556358;32;20087;-73
2022/01/14 23:07:57;;;;;;;16.33;7.53;;;;;;;6.11;59.06;101311.69;18555133;32;20118;-73
2022/01/14 23:18:02;;;;;;;18.35;8.88;;;;;;;5.98;59.61;101299.16;18555212;32;20087;-73
2022/01/14 23:28:05;;;;;;;18.27;8.77;;;;;;;6.01;59.61;101313.94;18554263;32;20110;-73
2022/01/14 23:38:10;;;;;;;20.02;8.85;;;;;;;6.03;59.66;101308.00;18554062;32;20110;-70
2022/01/14 23:48:13;;;;;;;20.02;9.02;;;;;;;5.86;59.80;101310.00;18556413;32;20111;-70
2022/01/14 23:58:17;;;;;;;17.12;8.80;;;;;;;5.51;61.20;101318.41;18563281;32;20431;-70
